Thunder radar more information blitzortung!


Radar de pluja more information rain snow radar


Visita la nostra xarxa de llocs de meteo:

Template documentation
and downloads

And another site



No particular awareness of the weather is required.    There are no Weather-warnings

Pagina Historial Weather Underground text

Diari Resum Setembre 30, 2017 Unitats:  Imperial    Mètric   Tant
« Previous Dia
SegĂźent Dia »
Diari Setmana Mensual Anual Personalitzada
  Maxima: Minima: Media:
Temperatura: TemperatureC °F 13.5 °F 19.3 °F
Punt de rosada: DewpointC °F 11.4 °F 14.4 °F
Humitat: Humidity % 53 % 74 %
Wind Speed: WindSpeedKMH mph 0.0 mph 3.8 mph
RĂ fegues de vent: WindSpeedGustKMH mph - -
Vent:- - South
Pression baro: PressurehPa in 1018.8 in -
Precipitacions: 0.0 in    
Historical Graphs
 
 
Dades de taula per Setembre 30, 2017
Temps Temperatura Punt de rosada Pression baro Vent Wind Speed RĂ fegues de vent Humitat Rainfall Rate (Hourly)
TemperatureC °F DewpointC °F PressurehPa in Calm     Humidity % HourlyPrecipMM in
00:00 15.3 °F 12.9 °F 1021.9 in SW 1.6 mph 4.8 mph 86 % 0.0 in
00:02 18.2 °F 14.3 °F 1022.9 in West 3.7 mph 3.7 mph 78 % 0.0 in
00:07 18.2 °F 14.5 °F 1022.9 in WSW 3.7 mph 3.7 mph 79 % 0.0 in
00:10 15.3 °F 12.9 °F 1021.9 in Calm     86 % 0.0 in
00:12 18.1 °F 14.4 °F 1022.9 in SW 1.9 mph   79 % 0.0 in
00:20 15.3 °F 13.2 °F 1021.9 in Calm   1.6 mph 87 % 0.0 in
00:30 15.0 °F 12.8 °F 1021.9 in Calm   1.6 mph 87 % 0.0 in
00:40 14.9 °F 12.8 °F 1020.9 in Calm   1.6 mph 87 % 0.0 in
00:50 14.8 °F 12.7 °F 1020.9 in Calm     87 % 0.0 in
01:00 14.7 °F 12.6 °F 1021.9 in Calm     87 % 0.0 in
01:10 14.4 °F 12.1 °F 1021.9 in North 1.6 mph 3.2 mph 86 % 0.0 in
01:20 14.4 °F 12.3 °F 1021.9 in Calm   1.6 mph 87 % 0.0 in
01:30 14.5 °F 12.3 °F 1020.9 in Calm   1.6 mph 87 % 0.0 in
01:40 14.6 °F 12.6 °F 1021.9 in Calm     88 % 0.0 in
01:50 14.2 °F 12.1 °F 1021.9 in SW 1.6 mph 3.2 mph 87 % 0.0 in
02:00 13.9 °F 11.8 °F 1021.9 in Calm   1.6 mph 87 % 0.0 in
02:20 13.7 °F 11.4 °F 1021.9 in SW 3.2 mph 3.2 mph 86 % 0.0 in
02:30 13.6 °F 11.5 °F 1021.9 in Calm   4.8 mph 87 % 0.0 in
02:40 13.6 °F 11.5 °F 1021.9 in WSW 1.6 mph 1.6 mph 87 % 0.0 in
02:50 13.5 °F 11.4 °F 1021.9 in SW 3.2 mph 3.2 mph 87 % 0.0 in
03:00 13.7 °F 11.7 °F 1021.9 in Calm   3.2 mph 88 % 0.0 in
03:10 13.6 °F 11.7 °F 1021.9 in WSW 1.6 mph   88 % 0.0 in
03:20 13.6 °F 11.7 °F 1021.9 in WSW 1.6 mph 1.6 mph 88 % 0.0 in
03:30 13.9 °F 12.1 °F 1021.9 in Calm     89 % 0.0 in
03:40 14.0 °F 12.1 °F 1021.9 in SW 1.6 mph 3.2 mph 88 % 0.0 in
03:50 14.1 °F 12.2 °F 1021.9 in SW 3.2 mph 3.2 mph 88 % 0.0 in
04:00 14.2 °F 12.2 °F 1021.9 in SW 1.6 mph 3.2 mph 88 % 0.0 in
04:10 14.6 °F 12.6 °F 1021.9 in SW 1.6 mph 3.2 mph 88 % 0.0 in
04:20 15.3 °F 13.5 °F 1021.9 in Calm     89 % 0.0 in
04:30 15.5 °F 13.5 °F 1021.9 in Calm   1.6 mph 88 % 0.0 in
04:40 16.2 °F 14.1 °F 1021.9 in SW 3.2 mph 3.2 mph 87 % 0.0 in
04:50 16.6 °F 14.4 °F 1021.9 in SW 1.6 mph 3.2 mph 87 % 0.0 in
05:00 17.0 °F 14.4 °F 1021.9 in SSW 1.6 mph 4.8 mph 85 % 0.0 in
05:10 17.2 °F 14.4 °F 1021.9 in SSW 1.6 mph 3.2 mph 84 % 0.0 in
05:20 17.5 °F 14.8 °F 1021.9 in Calm   1.6 mph 84 % 0.0 in
05:30 18.3 °F 15.2 °F 1021.9 in West 1.6 mph 3.2 mph 82 % 0.0 in
05:40 18.9 °F 15.6 °F 1021.9 in Calm   3.2 mph 81 % 0.0 in
05:50 18.9 °F 15.4 °F 1021.9 in Calm   4.8 mph 80 % 0.0 in
06:00 19.0 °F 15.1 °F 1021.9 in NE 1.6 mph 4.8 mph 78 % 0.0 in
06:10 19.8 °F 15.8 °F 1021.9 in Calm   3.2 mph 78 % 0.0 in
11:10 20.1 °F 15.9 °F 1021.9 in SW 2.3 mph 3.5 mph 77 % 0.0 in
11:15 20.3 °F 15.9 °F 1021.9 in SW 3.7 mph 3.7 mph 76 % 0.0 in
11:20 20.5 °F 16.1 °F 1021.9 in SW 7.6 mph 7.6 mph 76 % 0.0 in
11:25 20.6 °F 16.2 °F 1021.9 in South 5.8 mph 5.8 mph 76 % 0.0 in
11:30 20.9 °F 16.5 °F 1020.9 in SSW 5.6 mph 5.6 mph 76 % 0.0 in
11:35 21.1 °F 16.5 °F 1020.9 in WSW 3.7 mph 3.9 mph 75 % 0.0 in
11:40 21.0 °F 16.2 °F 1020.9 in West 13.0 mph 13.0 mph 74 % 0.0 in
11:45 21.1 °F 16.3 °F 1020.9 in West 9.7 mph 9.7 mph 74 % 0.0 in
11:50 21.2 °F 16.4 °F 1020.9 in SSW 5.6 mph 5.6 mph 74 % 0.0 in
11:55 21.7 °F 16.7 °F 1020.9 in West 7.4 mph 7.4 mph 73 % 0.0 in
12:00 21.7 °F 16.7 °F 1020.9 in West 11.4 mph 11.4 mph 73 % 0.0 in
12:05 21.7 °F 16.4 °F 1020.9 in SW 7.4 mph 7.4 mph 72 % 0.0 in
12:10 21.7 °F 16.2 °F 1020.9 in SSW 7.4 mph 7.4 mph 71 % 0.0 in
12:15 21.9 °F 16.4 °F 1020.9 in SW 5.6 mph 5.6 mph 71 % 0.0 in
12:20 22.4 °F 16.7 °F 1020.9 in SSE 7.4 mph 7.4 mph 70 % 0.0 in
12:25 22.8 °F 16.8 °F 1020.9 in WSW 11.1 mph 11.1 mph 69 % 0.0 in
12:30 23.0 °F 16.8 °F 1020.9 in WSW 7.4 mph 7.4 mph 68 % 0.0 in
12:35 23.0 °F 16.8 °F 1020.9 in WSW 7.4 mph 7.4 mph 68 % 0.0 in
12:40 23.2 °F 16.9 °F 1020.9 in West 5.6 mph 5.6 mph 68 % 0.0 in
12:45 23.3 °F 16.6 °F 1019.9 in SSW 5.8 mph 5.8 mph 66 % 0.0 in
12:50 23.2 °F 16.3 °F 1019.9 in SW 9.3 mph 9.3 mph 65 % 0.0 in
13:00 23.7 °F 16.5 °F 1019.9 in WSW 4.2 mph 4.2 mph 64 % 0.0 in
13:05 24.0 °F 16.5 °F 1019.9 in SW 10.0 mph 10.0 mph 63 % 0.0 in
13:10 24.2 °F 16.4 °F 1019.9 in WSW 6.1 mph 6.4 mph 62 % 0.0 in
13:15 24.3 °F 16.1 °F 1019.9 in SW 8.7 mph 8.7 mph 60 % 0.0 in
13:20 24.4 °F 16.4 °F 1019.9 in SSW 9.3 mph 9.3 mph 61 % 0.0 in
13:25 24.7 °F 16.4 °F 1019.9 in WSW 7.9 mph 7.9 mph 60 % 0.0 in
13:30 24.5 °F 15.9 °F 1018.8 in SW 6.1 mph 6.1 mph 59 % 0.0 in
13:35 24.6 °F 16.1 °F 1018.8 in WSW 7.6 mph 7.6 mph 59 % 0.0 in
13:40 24.6 °F 15.8 °F 1018.8 in SSW 7.4 mph 7.4 mph 58 % 0.0 in
13:45 24.7 °F 16.2 °F 1019.9 in SSW 10.0 mph 10.0 mph 59 % 0.0 in
13:50 24.6 °F 15.5 °F 1019.9 in SW 11.1 mph 11.1 mph 57 % 0.0 in
13:55 24.5 °F 15.7 °F 1019.9 in WSW 14.8 mph 14.8 mph 58 % 0.0 in
14:00 24.5 °F 15.7 °F 1018.8 in WSW 9.5 mph 9.5 mph 58 % 0.0 in
14:05 24.4 °F 15.1 °F 1018.8 in SW 11.1 mph 11.1 mph 56 % 0.0 in
14:10 24.4 °F 15.1 °F 1018.8 in WSW 7.4 mph 7.4 mph 56 % 0.0 in
14:15 24.4 °F 15.1 °F 1018.8 in SW 7.4 mph 7.4 mph 56 % 0.0 in
14:20 24.5 °F 15.4 °F 1018.8 in WSW 7.4 mph 7.4 mph 57 % 0.0 in
14:25 24.6 °F 15.5 °F 1018.8 in SW 7.4 mph 7.4 mph 57 % 0.0 in
14:30 24.6 °F 15.2 °F 1018.8 in South 11.1 mph 11.1 mph 56 % 0.0 in
14:35 24.7 °F 15.3 °F 1018.8 in SSW 11.1 mph 11.1 mph 56 % 0.0 in
14:41 24.7 °F 15.3 °F 1018.8 in WSW 11.1 mph 11.1 mph 56 % 0.0 in
14:46 24.7 °F 15.3 °F 1019.9 in SW 3.7 mph 3.7 mph 56 % 0.0 in
14:51 24.6 °F 15.2 °F 1019.9 in South 5.6 mph 5.6 mph 56 % 0.0 in
14:56 24.6 °F 15.5 °F 1019.9 in SSW 7.4 mph 7.4 mph 57 % 0.0 in
15:01 24.5 °F 15.4 °F 1019.9 in SSW 5.6 mph 5.6 mph 57 % 0.0 in
15:06 24.3 °F 15.2 °F 1019.9 in SW 7.4 mph 7.4 mph 57 % 0.0 in
15:11 24.3 °F 15.2 °F 1019.9 in WSW 6.4 mph 6.4 mph 57 % 0.0 in
15:16 24.2 °F 15.4 °F 1019.9 in SW 7.6 mph 7.6 mph 58 % 0.0 in
15:21 24.1 °F 15.3 °F 1019.9 in SW 5.6 mph 5.6 mph 58 % 0.0 in
15:26 23.9 °F 15.7 °F 1019.9 in SW 9.3 mph 9.3 mph 60 % 0.0 in
15:31 23.8 °F 15.6 °F 1019.9 in SSW 5.6 mph 5.6 mph 60 % 0.0 in
15:36 23.8 °F 15.6 °F 1019.9 in SW 7.4 mph 7.4 mph 60 % 0.0 in
15:41 23.9 °F 15.7 °F 1019.9 in SW 5.6 mph 5.6 mph 60 % 0.0 in
15:46 23.9 °F 15.7 °F 1019.9 in South 9.3 mph 9.3 mph 60 % 0.0 in
15:51 24.1 °F 15.6 °F 1019.9 in SW 3.2 mph 3.2 mph 59 % 0.0 in
15:56 24.2 °F 15.7 °F 1019.9 in SSW 2.6 mph 2.6 mph 59 % 0.0 in
16:01 24.2 °F 14.9 °F 1019.9 in WSW 3.7 mph 3.7 mph 56 % 0.0 in
16:06 24.3 °F 14.7 °F 1019.9 in WSW 3.7 mph 3.7 mph 55 % 0.0 in
16:11 24.3 °F 14.4 °F 1019.9 in WNW 1.9 mph   54 % 0.0 in
16:16 24.3 °F 14.1 °F 1019.9 in ENE 2.3 mph 2.3 mph 53 % 0.0 in
16:21 24.0 °F 14.1 °F 1019.9 in NE 7.4 mph 7.4 mph 54 % 0.0 in
16:26 23.9 °F 14.6 °F 1019.9 in NNE 8.7 mph 8.7 mph 56 % 0.0 in
16:31 23.6 °F 13.7 °F 1019.9 in NNE 14.8 mph 14.8 mph 54 % 0.0 in
16:36 23.4 °F 13.3 °F 1019.9 in North 10.3 mph 10.3 mph 53 % 0.0 in
16:41 23.1 °F 13.3 °F 1019.9 in ENE 6.9 mph 6.9 mph 54 % 0.0 in
16:46 22.7 °F 13.2 °F 1019.9 in WNW 5.6 mph 5.6 mph 55 % 0.0 in
16:51 22.4 °F 13.4 °F 1019.9 in NNW 4.2 mph 4.2 mph 57 % 0.0 in
16:56 22.1 °F 13.4 °F 1019.9 in ENE 5.6 mph 5.6 mph 58 % 0.0 in
17:01 21.6 °F 13.8 °F 1019.9 in North 3.7 mph 3.7 mph 61 % 0.0 in
17:06 21.2 °F 13.6 °F 1019.9 in NNE 3.7 mph 3.7 mph 62 % 0.0 in
17:11 20.9 °F 13.6 °F 1019.9 in NE 3.7 mph 3.7 mph 63 % 0.0 in
17:16 20.6 °F 13.8 °F 1019.9 in NE 3.7 mph 3.7 mph 65 % 0.0 in
17:21 20.2 °F 13.9 °F 1019.9 in ENE 7.4 mph 7.4 mph 67 % 0.0 in
17:26 20.0 °F 13.9 °F 1019.9 in North 1.9 mph 1.9 mph 68 % 0.0 in
17:31 19.9 °F 14.3 °F 1019.9 in NNW 1.9 mph   70 % 0.0 in
17:36 19.5 °F 14.3 °F 1019.9 in ENE 3.7 mph 3.7 mph 72 % 0.0 in
17:41 19.2 °F 14.2 °F 1019.9 in NNE 3.9 mph 3.9 mph 73 % 0.0 in
17:46 19.2 °F 14.4 °F 1019.9 in NNE 3.5 mph 3.5 mph 74 % 0.0 in
17:51 18.9 °F 14.4 °F 1019.9 in NE 3.7 mph   75 % 0.0 in
17:56 19.1 °F 14.3 °F 1019.9 in WSW 3.7 mph 3.7 mph 74 % 0.0 in
18:01 19.0 °F 14.4 °F 1019.9 in SW 3.7 mph 3.7 mph 75 % 0.0 in
18:06 19.0 °F 14.7 °F 1019.9 in NNW 2.3 mph   76 % 0.0 in
18:11 18.8 °F 14.3 °F 1019.9 in NE 3.5 mph 3.5 mph 75 % 0.0 in
18:16 18.8 °F 14.7 °F 1019.9 in NE 5.6 mph 5.6 mph 77 % 0.0 in
18:21 18.7 °F 14.4 °F 1019.9 in NNE 3.7 mph 3.7 mph 76 % 0.0 in
18:26 18.8 °F 14.5 °F 1019.9 in Calm     76 % 0.0 in
18:31 18.7 °F 14.4 °F 1019.9 in ENE 3.7 mph   76 % 0.0 in
18:36 18.8 °F 14.7 °F 1019.9 in Calm     77 % 0.0 in
18:41 18.8 °F 14.7 °F 1019.9 in Calm     77 % 0.0 in
18:46 18.8 °F 14.7 °F 1019.9 in NNE 3.2 mph 3.2 mph 77 % 0.0 in
18:51 18.8 °F 14.9 °F 1019.9 in NNE 3.7 mph 3.7 mph 78 % 0.0 in
18:56 18.7 °F 14.6 °F 1019.9 in NE 3.9 mph   77 % 0.0 in
19:01 18.6 °F 14.5 °F 1019.9 in NE 3.7 mph 3.7 mph 77 % 0.0 in
19:06 18.6 °F 14.5 °F 1019.9 in NNE 3.7 mph 3.7 mph 77 % 0.0 in
19:11 18.6 °F 14.5 °F 1019.9 in NE 3.7 mph 3.7 mph 77 % 0.0 in
19:16 18.5 °F 14.2 °F 1019.9 in NNE 5.6 mph 5.6 mph 76 % 0.0 in
19:21 18.4 °F 14.1 °F 1019.9 in WNW 3.7 mph 4.7 mph 76 % 0.0 in
19:26 18.4 °F 14.1 °F 1019.9 in ENE 3.7 mph 3.7 mph 76 % 0.0 in
19:31 18.3 °F 14.0 °F 1019.9 in NW 3.7 mph 3.7 mph 76 % 0.0 in
19:36 18.3 °F 13.8 °F 1019.9 in WNW 1.9 mph   75 % 0.0 in
19:41 18.4 °F 14.1 °F 1019.9 in WSW 1.9 mph 1.9 mph 76 % 0.0 in
19:46 18.2 °F 13.9 °F 1019.9 in WSW 1.9 mph   76 % 0.0 in
19:51 18.2 °F 13.9 °F 1019.9 in Calm     76 % 0.0 in
19:53 18.1 °F 13.8 °F 1019.9 in Calm     76 % 0.0 in
19:58 18.0 °F 13.7 °F 1019.9 in Calm     76 % 0.0 in
20:03 18.0 °F 13.7 °F 1019.9 in West 3.7 mph   76 % 0.0 in
20:08 18.0 °F 13.9 °F 1019.9 in West 1.9 mph 1.9 mph 77 % 0.0 in
20:13 17.9 °F 13.8 °F 1019.9 in Calm     77 % 0.0 in
20:18 17.8 °F 13.7 °F 1019.9 in Calm     77 % 0.0 in
20:23 17.8 °F 13.9 °F 1019.9 in NE 1.9 mph 1.9 mph 78 % 0.0 in
20:28 17.7 °F 13.8 °F 1019.9 in Calm     78 % 0.0 in
20:33 17.7 °F 13.8 °F 1019.9 in WNW 1.9 mph 1.9 mph 78 % 0.0 in
20:38 17.8 °F 13.9 °F 1019.9 in WNW 3.7 mph 3.7 mph 78 % 0.0 in
20:48 17.7 °F 14.0 °F 1020.9 in West 5.6 mph 5.6 mph 79 % 0.0 in
20:53 17.7 °F 14.0 °F 1020.9 in WSW 3.7 mph 3.7 mph 79 % 0.0 in
20:58 17.7 °F 14.2 °F 1020.9 in WSW 3.7 mph 3.7 mph 80 % 0.0 in
21:03 17.6 °F 14.1 °F 1020.9 in Calm     80 % 0.0 in
21:08 17.6 °F 14.3 °F 1020.9 in ESE 3.7 mph 3.7 mph 81 % 0.0 in
21:13 17.5 °F 14.4 °F 1020.9 in East 3.7 mph 3.7 mph 82 % 0.0 in
21:18 17.3 °F 14.2 °F 1020.9 in ENE 1.9 mph   82 % 0.0 in
21:23 17.3 °F 14.2 °F 1020.9 in East 1.9 mph   82 % 0.0 in
21:28 17.2 °F 14.1 °F 1020.9 in Calm     82 % 0.0 in
21:33 17.2 °F 14.1 °F 1021.9 in Calm     82 % 0.0 in
21:38 17.2 °F 14.1 °F 1021.9 in Calm     82 % 0.0 in
21:43 17.2 °F 14.1 °F 1021.9 in Calm     82 % 0.0 in
21:48 17.2 °F 14.3 °F 1021.9 in Calm     83 % 0.0 in
21:53 17.1 °F 14.2 °F 1021.9 in Calm     83 % 0.0 in
21:58 17.1 °F 14.2 °F 1021.9 in Calm     83 % 0.0 in
22:03 17.1 °F 14.4 °F 1021.9 in Calm     84 % 0.0 in
22:08 17.1 °F 14.4 °F 1021.9 in NNE 1.9 mph   84 % 0.0 in
22:13 17.0 °F 14.3 °F 1021.9 in Calm     84 % 0.0 in
22:18 17.0 °F 14.3 °F 1021.9 in Calm     84 % 0.0 in
22:23 17.0 °F 14.3 °F 1021.9 in Calm     84 % 0.0 in
22:28 17.0 °F 14.3 °F 1021.9 in WSW 1.9 mph   84 % 0.0 in
22:33 17.0 °F 14.3 °F 1021.9 in Calm     84 % 0.0 in
22:38 16.9 °F 14.3 °F 1021.9 in Calm     85 % 0.0 in
22:43 16.9 °F 14.3 °F 1021.9 in Calm     85 % 0.0 in
22:48 16.8 °F 14.3 °F 1021.9 in Calm     85 % 0.0 in
22:53 16.9 °F 14.3 °F 1021.9 in Calm     85 % 0.0 in
22:58 16.9 °F 14.3 °F 1021.9 in Calm     85 % 0.0 in
23:03 17.0 °F 14.4 °F 1021.9 in ENE 3.7 mph 3.7 mph 85 % 0.0 in
23:08 16.9 °F 14.3 °F 1021.9 in ENE 1.9 mph 1.9 mph 85 % 0.0 in
23:13 16.9 °F 14.2 °F 1021.9 in ENE 3.7 mph 3.7 mph 84 % 0.0 in
23:18 16.9 °F 14.2 °F 1021.9 in Calm     84 % 0.0 in
23:23 17.0 °F 14.3 °F 1021.9 in NNW 1.9 mph 1.9 mph 84 % 0.0 in
23:28 17.0 °F 14.1 °F 1021.9 in ENE 3.7 mph 3.7 mph 83 % 0.0 in
23:33 17.0 °F 13.9 °F 1021.9 in ENE 1.9 mph   82 % 0.0 in
23:38 17.0 °F 13.9 °F 1021.9 in NE 3.7 mph 3.7 mph 82 % 0.0 in
23:43 17.0 °F 13.7 °F 1021.9 in NNE 3.7 mph 3.7 mph 81 % 0.0 in
23:48 17.0 °F 13.7 °F 1021.9 in ENE 3.7 mph 3.7 mph 81 % 0.0 in
23:53 17.0 °F 13.5 °F 1021.9 in NNW 3.5 mph 3.5 mph 80 % 0.0 in
23:58 16.9 °F 13.6 °F 1021.9 in Calm     81 % 0.0 in
Meteo Sesrovires
Elogis d' Weather Underground - 3.5 mb

Guio original per  Jim McMurry - jmcmurry@mwt.net Adaptat per a la plantilla per  Wim van der Kuil - Leuven-Template.eu

Trobareu la nostra informacio del temps tambe a:

Weather Underground

AWEKAS